Terminal Aerodrome Forecast
Issued by NWS Pueblo, CO

Home | Current Version | Previous Version | Text Only | Print | Product List | Glossary On
Versions: 1 2 3 4 5 6 7 8 9 10 11 12 13 14 15 16 17 18 19 20 21 22 23 24 25 26 27 28 29 30 31 32 33 34 35 36 37 38 39 40 41 42 43 44 45 46 47
000
FTUS45 KPUB 281739
TAFCOS
TAF
KCOS 281739Z 2818/0118 13007KT P6SM VCSH FEW080 BKN250
      TEMPO 2821/2823 SCT030 BKN080
     FM282300 13010KT 3SM -SN BR BKN010 OVC025
     FM010900 VRB06KT 4SM BR FEW005 SCT025 SCT100=

USA.gov is the U.S. government's official web portal to all federal, state and local government web resources and services.